Time;durP1;ratioP1;P1;durP2;ratioP2;P2;SDS_P1;SDS_P2;PMS_P1;PMS_P2;Temp;Humidity;BMP_temperature;BMP_pressure;BME280_temperature;BME280_humidity;BME280_pressure;Samples;Min_cycle;Max_cycle;Signal;HPM_P1;HPM_P2
2022/11/28 00:01:58;;;;;;;6.22;3.80;;;;;;;;;;5092182;28;20016;-70
2022/11/28 00:04:24;;;;;;;6.22;3.78;;;;;;;;;;5091969;28;20099;-71
2022/11/28 00:06:49;;;;;;;5.57;4.15;;;;;;;;;;5092234;28;20035;-71
2022/11/28 00:09:15;;;;;;;5.15;3.78;;;;;;;;;;5092345;28;20024;-69
2022/11/28 00:11:42;;;;;;;5.75;3.85;;;;;;;;;;5092110;28;20083;-71
2022/11/28 00:14:07;;;;;;;4.75;3.88;;;;;;;;;;5092083;28;20016;-71
2022/11/28 00:16:32;;;;;;;5.07;3.75;;;;;;;;;;5091909;28;20479;-70
2022/11/28 00:18:58;;;;;;;10.35;4.50;;;;;;;;;;5091909;28;20041;-70
2022/11/28 00:21:24;;;;;;;5.70;3.97;;;;;;;;;;5092210;28;20549;-72
2022/11/28 00:23:50;;;;;;;5.53;3.67;;;;;;;;;;5107776;28;20024;-70
2022/11/28 00:26:47;;;;;;;5.75;3.90;;;;;;;;;;5091837;28;20111;-69
2022/11/28 00:29:13;;;;;;;6.13;4.35;;;;;;;;;;5070393;28;20431;-70
2022/11/28 00:31:41;;;;;;;5.75;3.83;;;;;;;;;;5095599;28;20016;-69
2022/11/28 00:34:08;;;;;;;6.78;4.20;;;;;;;;;;5095849;28;20354;-70
2022/11/28 00:36:33;;;;;;;7.60;3.97;;;;;;;;;;5095618;28;20380;-70
2022/11/28 00:38:58;;;;;;;5.90;4.22;;;;;;;;;;5095398;28;20020;-70
2022/11/28 00:41:25;;;;;;;6.90;3.85;;;;;;;;;;5095382;28;20532;-69
2022/11/28 00:43:51;;;;;;;5.05;4.07;;;;;;;;;;5095503;28;20020;-70
2022/11/28 00:46:17;;;;;;;4.93;3.70;;;;;;;;;;5095745;28;20103;-71
2022/11/28 00:48:42;;;;;;;5.18;3.80;;;;;;;;;;5095309;28;20039;-71
2022/11/28 00:51:09;;;;;;;4.63;3.60;;;;;;;;;;5095643;28;20016;-69
2022/11/28 00:53:36;;;;;;;4.00;3.22;;;;;;;;;;5095625;28;20453;-70
2022/11/28 00:56:05;;;;;;;4.88;3.50;;;;;;;;;;5095487;28;20479;-71
2022/11/28 00:58:31;;;;;;;5.05;3.60;;;;;;;;;;5094793;28;20043;-71
2022/11/28 01:00:56;;;;;;;5.43;3.90;;;;;;;;;;5094817;28;20016;-66
2022/11/28 01:03:21;;;;;;;5.53;3.85;;;;;;;;;;5095538;28;20106;-70
2022/11/28 01:05:47;;;;;;;5.55;3.33;;;;;;;;;;5094813;28;20392;-70
2022/11/28 01:08:12;;;;;;;5.70;3.30;;;;;;;;;;5110723;28;20399;-70
2022/11/28 01:10:39;;;;;;;4.15;3.30;;;;;;;;;;5095304;28;20460;-71
2022/11/28 01:13:07;;;;;;;5.00;2.92;;;;;;;;;;5094560;28;20027;-71
2022/11/28 01:15:33;;;;;;;3.97;2.97;;;;;;;;;;5110735;28;20028;-70
2022/11/28 01:17:58;;;;;;;4.20;2.95;;;;;;;;;;5094883;28;20023;-70
2022/11/28 01:20:23;;;;;;;4.65;3.42;;;;;;;;;;5094729;28;20449;-70
2022/11/28 01:22:49;;;;;;;4.85;3.45;;;;;;;;;;5094927;28;20022;-68
2022/11/28 01:25:14;;;;;;;4.60;2.90;;;;;;;;;;5109905;28;20043;-69
2022/11/28 01:27:40;;;;;;;4.40;3.13;;;;;;;;;;5094458;28;20020;-69
2022/11/28 01:30:05;;;;;;;4.03;2.90;;;;;;;;;;5094476;28;20534;-70
2022/11/28 01:32:31;;;;;;;3.67;3.05;;;;;;;;;;5094817;28;20430;-71
2022/11/28 01:34:56;;;;;;;3.60;2.83;;;;;;;;;;5094294;28;20016;-65
2022/11/28 01:37:22;;;;;;;6.43;3.30;;;;;;;;;;5094576;28;20365;-71
2022/11/28 01:39:47;;;;;;;3.50;2.92;;;;;;;;;;5094585;28;20114;-69
2022/11/28 01:42:19;;;;;;;6.22;4.32;;;;;;;;;;5094460;28;20012;-71
2022/11/28 01:44:47;;;;;;;4.15;3.20;;;;;;;;;;5094382;28;20046;-71
2022/11/28 01:47:13;;;;;;;4.20;3.42;;;;;;;;;;5094160;28;20020;-70
2022/11/28 01:49:39;;;;;;;6.18;3.67;;;;;;;;;;5094446;28;20027;-69
2022/11/28 01:52:08;;;;;;;4.75;3.15;;;;;;;;;;5109816;28;20016;-71
2022/11/28 01:54:34;;;;;;;3.53;2.95;;;;;;;;;;5093955;28;20429;-71
2022/11/28 01:57:12;;;;;;;5.05;3.10;;;;;;;;;;5093894;28;20020;-70
2022/11/28 01:59:41;;;;;;;4.78;3.53;;;;;;;;;;5109211;28;20048;-69
2022/11/28 02:02:07;;;;;;;4.53;3.17;;;;;;;;;;5093890;28;20468;-71
2022/11/28 02:04:33;;;;;;;4.93;3.05;;;;;;;;;;5093837;28;20020;-69
2022/11/28 02:06:59;;;;;;;5.13;3.40;;;;;;;;;;5093540;28;20032;-69
2022/11/28 02:09:24;;;;;;;4.88;2.90;;;;;;;;;;5093708;28;20027;-70
2022/11/28 02:11:53;;;;;;;4.32;3.13;;;;;;;;;;5109414;28;20048;-68
2022/11/28 02:14:27;;;;;;;4.75;3.33;;;;;;;;;;5109113;28;20066;-71
2022/11/28 02:17:07;;;;;;;3.58;2.60;;;;;;;;;;5109410;28;20032;-70
2022/11/28 02:19:51;;;;;;;3.97;2.85;;;;;;;;;;5093691;28;20119;-70
2022/11/28 02:22:27;;;;;;;3.38;2.60;;;;;;;;;;5093773;28;20016;-70
2022/11/28 02:24:55;;;;;;;4.03;2.78;;;;;;;;;;5093756;28;20480;-71
2022/11/28 02:27:26;;;;;;;4.18;2.58;;;;;;;;;;5108759;28;20023;-70
2022/11/28 02:30:03;;;;;;;2.95;2.40;;;;;;;;;;5093244;28;20017;-69
2022/11/28 02:32:35;;;;;;;4.22;2.17;;;;;;;;;;5093535;28;20027;-71
2022/11/28 02:35:03;;;;;;;2.83;2.30;;;;;;;;;;5093336;28;20024;-70
2022/11/28 02:37:34;;;;;;;2.58;2.20;;;;;;;;;;5108973;28;20389;-69
2022/11/28 02:40:26;;;;;;;3.03;2.20;;;;;;;;;;5093336;28;20023;-69
2022/11/28 02:43:01;;;;;;;3.10;2.40;;;;;;;;;;5092051;28;20044;-70
2022/11/28 02:45:30;;;;;;;3.38;2.28;;;;;;;;;;5108839;28;20028;-69
2022/11/28 02:48:03;;;;;;;2.95;1.80;;;;;;;;;;5093134;28;20024;-72
2022/11/28 02:50:31;;;;;;;3.40;2.35;;;;;;;;;;5093124;28;20103;-69
2022/11/28 02:53:03;;;;;;;3.85;2.08;;;;;;;;;;5108292;28;20024;-70
2022/11/28 02:55:28;;;;;;;3.42;2.30;;;;;;;;;;5093039;28;20495;-70
2022/11/28 02:57:54;;;;;;;2.83;2.28;;;;;;;;;;5093013;28;20016;-71
2022/11/28 03:00:23;;;;;;;4.70;2.15;;;;;;;;;;5092892;28;20404;-71
2022/11/28 03:03:09;;;;;;;3.97;2.50;;;;;;;;;;5096534;28;20024;-70
2022/11/28 03:05:41;;;;;;;2.90;2.15;;;;;;;;;;5108672;28;20028;-70
2022/11/28 03:08:18;;;;;;;3.42;2.20;;;;;;;;;;5108581;28;20128;-70
2022/11/28 03:10:49;;;;;;;3.97;2.22;;;;;;;;;;5108485;28;20438;-69
2022/11/28 03:13:24;;;;;;;3.78;2.28;;;;;;;;;;5092490;28;20107;-70
2022/11/28 03:15:58;;;;;;;4.50;2.33;;;;;;;;;;5092741;28;20062;-71
2022/11/28 03:18:26;;;;;;;3.08;2.08;;;;;;;;;;5108472;28;20028;-70
2022/11/28 03:20:54;;;;;;;4.88;2.35;;;;;;;;;;5092498;28;20383;-70
2022/11/28 03:23:22;;;;;;;3.65;2.55;;;;;;;;;;5092493;28;20031;-70
2022/11/28 03:25:56;;;;;;;3.42;2.10;;;;;;;;;;5108108;28;20032;-70
2022/11/28 03:28:41;;;;;;;5.05;2.30;;;;;;;;;;5092344;28;20028;-69
2022/11/28 03:31:09;;;;;;;4.13;2.75;;;;;;;;;;5092125;28;20085;-70
2022/11/28 03:33:46;;;;;;;2.88;2.13;;;;;;;;;;5092454;28;20435;-70
2022/11/28 03:36:17;;;;;;;3.53;2.45;;;;;;;;;;5092423;28;20016;-69
2022/11/28 03:38:44;;;;;;;3.78;1.88;;;;;;;;;;5092285;28;20028;-70
2022/11/28 03:41:13;;;;;;;2.70;2.00;;;;;;;;;;5107856;28;20020;-71
2022/11/28 03:43:45;;;;;;;4.50;1.77;;;;;;;;;;5108140;28;20031;-71
2022/11/28 03:46:12;;;;;;;4.55;1.88;;;;;;;;;;5092326;28;20028;-70
2022/11/28 03:48:43;;;;;;;6.35;1.85;;;;;;;;;;5092117;28;20401;-71
2022/11/28 03:51:11;;;;;;;4.28;2.08;;;;;;;;;;5091965;28;20021;-71
2022/11/28 03:53:51;;;;;;;3.05;1.70;;;;;;;;;;5092039;28;20377;-70
2022/11/28 03:56:21;;;;;;;2.88;1.50;;;;;;;;;;5092089;28;20020;-70
2022/11/28 03:58:51;;;;;;;2.22;1.80;;;;;;;;;;5091952;28;20520;-71
2022/11/28 04:01:25;;;;;;;3.75;2.53;;;;;;;;;;5107538;28;20380;-70
2022/11/28 04:03:51;;;;;;;2.20;1.67;;;;;;;;;;5094295;28;20024;-71
2022/11/28 04:06:28;;;;;;;2.55;1.88;;;;;;;;;;5111713;28;20043;-70
2022/11/28 04:09:02;;;;;;;3.72;1.67;;;;;;;;;;5096108;28;20109;-72
2022/11/28 04:11:35;;;;;;;2.20;1.83;;;;;;;;;;5096339;28;20045;-69
2022/11/28 04:14:07;;;;;;;3.08;2.17;;;;;;;;;;5096155;28;20024;-70
2022/11/28 04:16:53;;;;;;;2.55;1.88;;;;;;;;;;5096507;28;20369;-71
2022/11/28 04:19:25;;;;;;;3.70;1.70;;;;;;;;;;5095894;28;20614;-70
2022/11/28 04:21:56;;;;;;;3.03;2.00;;;;;;;;;;5096069;28;20547;-70
2022/11/28 04:24:27;;;;;;;4.32;2.85;;;;;;;;;;5095774;28;20031;-72
2022/11/28 04:26:57;;;;;;;4.13;2.75;;;;;;;;;;5095590;28;20396;-71
2022/11/28 04:29:23;;;;;;;3.35;2.60;;;;;;;;;;5095960;28;20020;-71
2022/11/28 04:31:49;;;;;;;3.78;2.70;;;;;;;;;;5095702;28;20020;-70
2022/11/28 04:34:16;;;;;;;2.97;2.08;;;;;;;;;;5111560;28;20016;-70
2022/11/28 04:36:43;;;;;;;4.32;2.60;;;;;;;;;;5096317;28;20372;-70
2022/11/28 04:39:13;;;;;;;7.80;3.97;;;;;;;;;;5095181;28;20020;-70
2022/11/28 04:41:41;;;;;;;4.57;2.90;;;;;;;;;;5095382;28;20043;-72
2022/11/28 04:44:13;;;;;;;4.57;2.67;;;;;;;;;;5095582;28;20023;-70
2022/11/28 04:46:42;;;;;;;3.83;2.83;;;;;;;;;;5111008;28;20392;-70
2022/11/28 04:49:07;;;;;;;4.18;2.97;;;;;;;;;;5095173;28;20070;-70
2022/11/28 04:51:38;;;;;;;5.07;3.10;;;;;;;;;;5110726;28;20019;-70
2022/11/28 04:54:08;;;;;;;5.00;3.50;;;;;;;;;;5094973;28;20492;-69
2022/11/28 04:57:03;;;;;;;4.47;3.22;;;;;;;;;;5095592;28;20460;-69
2022/11/28 04:59:30;;;;;;;4.38;2.63;;;;;;;;;;5089638;28;20051;-68
2022/11/28 05:01:57;;;;;;;5.38;3.63;;;;;;;;;;5109455;28;20107;-70
2022/11/28 05:04:22;;;;;;;5.30;3.80;;;;;;;;;;5093596;28;20089;-71
2022/11/28 05:06:48;;;;;;;6.60;3.70;;;;;;;;;;5093296;28;20365;-70
2022/11/28 05:09:13;;;;;;;5.85;4.07;;;;;;;;;;5093360;28;20131;-71
2022/11/28 05:11:39;;;;;;;7.05;4.60;;;;;;;;;;5093319;28;20012;-71
2022/11/28 05:14:04;;;;;;;6.63;4.00;;;;;;;;;;5093130;28;20016;-70
2022/11/28 05:16:30;;;;;;;9.07;4.97;;;;;;;;;;5093626;28;20012;-71
2022/11/28 05:18:55;;;;;;;9.27;4.88;;;;;;;;;;5093251;28;20043;-63
2022/11/28 05:21:21;;;;;;;13.50;7.00;;;;;;;;;;5093348;28;20020;-71
2022/11/28 05:23:46;;;;;;;15.98;6.47;;;;;;;;;;5109300;28;20020;-71
2022/11/28 05:26:16;;;;;;;11.88;6.95;;;;;;;;;;5093498;28;20122;-70
2022/11/28 05:28:42;;;;;;;13.40;6.63;;;;;;;;;;5093487;28;20012;-70
2022/11/28 05:31:08;;;;;;;17.27;7.75;;;;;;;;;;5093403;28;20016;-72
2022/11/28 05:33:33;;;;;;;15.27;7.80;;;;;;;;;;5108811;28;20016;-72
2022/11/28 05:36:06;;;;;;;16.70;7.10;;;;;;;;;;5093038;28;20102;-71
2022/11/28 05:38:32;;;;;;;20.08;9.15;;;;;;;;;;5109088;28;20020;-72
2022/11/28 05:40:58;;;;;;;40.83;15.30;;;;;;;;;;5108523;28;20031;-73
2022/11/28 05:43:24;;;;;;;50.60;19.30;;;;;;;;;;5092851;28;20383;-72
2022/11/28 05:45:49;;;;;;;54.15;19.42;;;;;;;;;;5092917;28;20024;-72
2022/11/28 05:48:15;;;;;;;38.78;17.13;;;;;;;;;;5092737;28;20043;-71
2022/11/28 05:50:41;;;;;;;34.13;13.50;;;;;;;;;;5093005;28;20024;-73
2022/11/28 05:53:06;;;;;;;28.83;10.68;;;;;;;;;;5093227;28;20020;-72
2022/11/28 05:55:32;;;;;;;18.67;11.05;;;;;;;;;;5092778;28;20407;-74
2022/11/28 05:57:57;;;;;;;20.42;8.10;;;;;;;;;;5092957;28;20027;-72
2022/11/28 06:00:23;;;;;;;17.17;7.57;;;;;;;;;;5043114;28;1423241;-74
2022/11/28 06:02:48;;;;;;;16.73;6.32;;;;;;;;;;5109614;28;20096;-73
2022/11/28 06:05:13;;;;;;;13.05;8.40;;;;;;;;;;5109040;28;20042;-71
2022/11/28 06:07:39;;;;;;;17.67;9.93;;;;;;;;;;5109550;28;20066;-71
2022/11/28 06:10:04;;;;;;;16.98;9.73;;;;;;;;;;5093337;28;20016;-72
2022/11/28 06:12:30;;;;;;;18.73;10.77;;;;;;;;;;5108920;28;20016;-74
2022/11/28 06:14:55;;;;;;;16.10;9.93;;;;;;;;;;5093204;28;20020;-72
2022/11/28 06:17:21;;;;;;;17.70;11.35;;;;;;;;;;5093005;28;20012;-72
2022/11/28 06:19:46;;;;;;;16.45;9.55;;;;;;;;;;5093351;28;20012;-73
2022/11/28 06:22:12;;;;;;;18.08;10.98;;;;;;;;;;5093495;28;20023;-74
2022/11/28 06:24:37;;;;;;;15.57;7.90;;;;;;;;;;5092149;28;20077;-72
2022/11/28 06:27:02;;;;;;;16.58;8.80;;;;;;;;;;5092132;28;20036;-73
2022/11/28 06:29:28;;;;;;;18.27;10.93;;;;;;;;;;5109379;28;20020;-73
2022/11/28 06:31:54;;;;;;;13.65;7.38;;;;;;;;;;5092037;28;20020;-73
2022/11/28 06:34:20;;;;;;;15.98;8.70;;;;;;;;;;5108509;28;20453;-73
2022/11/28 06:36:45;;;;;;;11.45;7.22;;;;;;;;;;5092575;28;20091;-72
2022/11/28 06:39:13;;;;;;;14.43;7.63;;;;;;;;;;5092729;28;20107;-72
2022/11/28 06:41:39;;;;;;;16.80;9.90;;;;;;;;;;5092628;28;20020;-69
2022/11/28 06:44:04;;;;;;;10.65;6.15;;;;;;;;;;5092593;28;20466;-74
2022/11/28 06:46:29;;;;;;;8.77;4.93;;;;;;;;;;5092338;28;20032;-73
2022/11/28 06:48:55;;;;;;;8.23;5.20;;;;;;;;;;5092443;28;20099;-74
2022/11/28 06:51:20;;;;;;;10.05;6.78;;;;;;;;;;5092570;28;20095;-72
2022/11/28 06:53:46;;;;;;;12.68;7.40;;;;;;;;;;5092846;28;20067;-71
2022/11/28 06:56:12;;;;;;;8.43;6.43;;;;;;;;;;5092201;28;20480;-72
2022/11/28 06:58:38;;;;;;;17.80;8.10;;;;;;;;;;5092068;28;20533;-72
2022/11/28 07:01:12;;;;;;;9.95;5.90;;;;;;;;;;5092099;28;20051;-72
2022/11/28 07:03:38;;;;;;;8.60;4.13;;;;;;;;;;5107340;28;20012;-73
2022/11/28 07:06:04;;;;;;;10.75;6.95;;;;;;;;;;5107774;28;20036;-74
2022/11/28 07:08:30;;;;;;;12.95;7.18;;;;;;;;;;5092538;28;20473;-74
2022/11/28 07:10:58;;;;;;;9.60;5.97;;;;;;;;;;5092165;28;20042;-73
2022/11/28 07:13:24;;;;;;;11.95;6.75;;;;;;;;;;5107411;28;20031;-74
2022/11/28 07:15:50;;;;;;;14.52;8.18;;;;;;;;;;5092005;28;20028;-75
2022/11/28 07:18:15;;;;;;;16.00;8.77;;;;;;;;;;5107518;28;20119;-72
2022/11/28 07:20:41;;;;;;;12.68;7.45;;;;;;;;;;5091801;28;20456;-75
2022/11/28 07:23:06;;;;;;;17.50;10.73;;;;;;;;;;5091458;28;20027;-75
2022/11/28 07:25:32;;;;;;;13.68;8.20;;;;;;;;;;5091822;28;20031;-72
2022/11/28 07:27:58;;;;;;;12.80;7.28;;;;;;;;;;5091966;28;20023;-74
2022/11/28 07:30:24;;;;;;;12.70;7.72;;;;;;;;;;5091430;28;20016;-74
2022/11/28 07:32:49;;;;;;;13.07;8.55;;;;;;;;;;5107438;28;20030;-73
2022/11/28 07:35:15;;;;;;;13.45;7.72;;;;;;;;;;5107216;28;20081;-74
2022/11/28 07:37:40;;;;;;;14.95;9.15;;;;;;;;;;5091931;28;20069;-72
2022/11/28 07:40:06;;;;;;;15.27;7.95;;;;;;;;;;5092238;28;20129;-74
2022/11/28 07:42:32;;;;;;;15.95;10.35;;;;;;;;;;5107306;28;20032;-73
2022/11/28 07:44:57;;;;;;;11.05;7.07;;;;;;;;;;5091321;28;20112;-76
2022/11/28 07:47:23;;;;;;;16.23;9.80;;;;;;;;;;5091263;28;20372;-73
2022/11/28 07:49:48;;;;;;;15.73;9.95;;;;;;;;;;5107017;28;20048;-74
2022/11/28 07:52:14;;;;;;;14.57;9.55;;;;;;;;;;5091328;28;20074;-73
2022/11/28 07:54:39;;;;;;;21.80;11.75;;;;;;;;;;5092157;28;20548;-74
2022/11/28 07:57:05;;;;;;;12.20;8.02;;;;;;;;;;5089764;28;20053;-74
2022/11/28 07:59:30;;;;;;;14.15;7.25;;;;;;;;;;5091724;28;20044;-74
2022/11/28 08:01:56;;;;;;;11.00;6.03;;;;;;;;;;5091405;28;20019;-73
2022/11/28 08:04:21;;;;;;;10.77;6.82;;;;;;;;;;5091228;28;20026;-73
2022/11/28 08:06:47;;;;;;;12.13;6.80;;;;;;;;;;5107203;28;20364;-71
2022/11/28 08:09:12;;;;;;;11.75;6.82;;;;;;;;;;5106866;28;20024;-74
2022/11/28 08:11:38;;;;;;;12.80;7.07;;;;;;;;;;5091290;28;20472;-71
2022/11/28 08:14:03;;;;;;;8.63;6.00;;;;;;;;;;5091496;28;20024;-73
2022/11/28 08:16:30;;;;;;;7.95;4.65;;;;;;;;;;5106685;28;20097;-74
2022/11/28 08:18:55;;;;;;;9.38;4.75;;;;;;;;;;5091615;28;20071;-74
2022/11/28 08:21:25;;;;;;;8.43;4.40;;;;;;;;;;5107141;28;20213;-73
2022/11/28 08:23:51;;;;;;;9.98;5.38;;;;;;;;;;5106923;28;20403;-71
2022/11/28 08:26:18;;;;;;;6.25;2.90;;;;;;;;;;5090707;28;20039;-74
2022/11/28 08:28:43;;;;;;;8.45;4.25;;;;;;;;;;5091034;28;20016;-73
2022/11/28 08:31:16;;;;;;;7.70;5.30;;;;;;;;;;5090980;28;20034;-74
2022/11/28 08:33:41;;;;;;;6.72;4.65;;;;;;;;;;5106990;28;20055;-73
2022/11/28 08:36:07;;;;;;;5.50;3.72;;;;;;;;;;5091298;28;20147;-73
2022/11/28 08:38:33;;;;;;;6.93;3.75;;;;;;;;;;5091567;28;20103;-72
2022/11/28 08:41:03;;;;;;;7.50;3.30;;;;;;;;;;5091259;28;21038;-73
2022/11/28 08:43:28;;;;;;;6.05;3.40;;;;;;;;;;5091337;28;20024;-75
2022/11/28 08:45:53;;;;;;;5.85;4.00;;;;;;;;;;5091167;28;20043;-75
2022/11/28 08:48:19;;;;;;;7.60;3.15;;;;;;;;;;5091316;28;20380;-73
2022/11/28 08:50:45;;;;;;;4.25;2.50;;;;;;;;;;5094929;28;20016;-72
2022/11/28 08:53:11;;;;;;;4.78;3.05;;;;;;;;;;5110552;28;20020;-73
2022/11/28 08:55:37;;;;;;;4.55;3.22;;;;;;;;;;5095082;28;20020;-75
2022/11/28 08:58:03;;;;;;;4.47;3.28;;;;;;;;;;5095460;28;20433;-74
2022/11/28 09:00:28;;;;;;;5.00;2.80;;;;;;;;;;5110089;28;20055;-75
2022/11/28 09:02:53;;;;;;;9.48;4.40;;;;;;;;;;5110381;28;20016;-72
2022/11/28 09:05:19;;;;;;;4.95;3.03;;;;;;;;;;5094725;28;20105;-75
2022/11/28 09:07:44;;;;;;;4.50;2.42;;;;;;;;;;5095284;28;20111;-71
2022/11/28 09:10:10;;;;;;;7.75;3.30;;;;;;;;;;5110071;28;20024;-73
2022/11/28 09:12:35;;;;;;;5.53;3.33;;;;;;;;;;5094483;28;20415;-74
2022/11/28 09:15:00;;;;;;;5.30;3.70;;;;;;;;;;5094153;28;20038;-72
2022/11/28 09:17:26;;;;;;;6.63;3.97;;;;;;;;;;5094479;28;20024;-73
2022/11/28 09:19:52;;;;;;;6.32;4.00;;;;;;;;;;5094488;28;20383;-71
2022/11/28 09:22:17;;;;;;;5.97;4.32;;;;;;;;;;5094433;28;20023;-72
2022/11/28 09:24:43;;;;;;;5.22;3.42;;;;;;;;;;5094195;28;20041;-71
2022/11/28 09:27:08;;;;;;;6.28;4.15;;;;;;;;;;5093849;28;20047;-73
2022/11/28 09:29:33;;;;;;;7.65;4.22;;;;;;;;;;5094697;28;20016;-73
2022/11/28 09:31:59;;;;;;;6.20;4.05;;;;;;;;;;5094406;28;20008;-73
2022/11/28 09:34:24;;;;;;;5.93;4.82;;;;;;;;;;5109666;28;20105;-74
2022/11/28 09:36:49;;;;;;;5.72;3.95;;;;;;;;;;5093929;28;20019;-72
2022/11/28 09:39:15;;;;;;;7.00;3.85;;;;;;;;;;5093241;28;20024;-72
2022/11/28 09:41:52;;;;;;;6.30;4.35;;;;;;;;;;5094073;28;20024;-71
2022/11/28 09:44:27;;;;;;;6.47;4.47;;;;;;;;;;5110050;28;20481;-74
2022/11/28 09:46:54;;;;;;;6.03;4.18;;;;;;;;;;5109762;28;20038;-72
2022/11/28 09:49:33;;;;;;;6.65;4.35;;;;;;;;;;5109296;28;20024;-75
2022/11/28 09:52:02;;;;;;;8.20;4.80;;;;;;;;;;5094548;28;20032;-72
2022/11/28 09:54:41;;;;;;;6.35;4.45;;;;;;;;;;5110761;28;20024;-71
2022/11/28 09:57:31;;;;;;;9.25;5.63;;;;;;;;;;5096298;28;20024;-73
2022/11/28 09:59:57;;;;;;;7.03;4.68;;;;;;;;;;5095427;28;20388;-72
2022/11/28 10:02:22;;;;;;;10.77;4.65;;;;;;;;;;5092954;28;20026;-73
2022/11/28 10:05:02;;;;;;;10.27;4.75;;;;;;;;;;5093440;28;20016;-73
2022/11/28 10:07:28;;;;;;;11.20;5.95;;;;;;;;;;5093256;28;20032;-73
2022/11/28 10:10:01;;;;;;;9.07;5.57;;;;;;;;;;5093637;28;20467;-74
2022/11/28 10:12:33;;;;;;;8.57;4.90;;;;;;;;;;5093219;28;20042;-71
2022/11/28 10:15:18;;;;;;;7.80;4.78;;;;;;;;;;5093150;28;20102;-73
2022/11/28 10:17:44;;;;;;;;;;;;;;;;;;5093986;28;20369;-72
2022/11/28 10:20:09;;;;;;;7.93;5.30;;;;;;;;;;5093619;28;20010;-74
2022/11/28 10:22:38;;;;;;;10.73;6.18;;;;;;;;;;5092882;28;20118;-73
2022/11/28 10:25:06;;;;;;;7.25;5.00;;;;;;;;;;5108271;28;20160;-73
2022/11/28 10:27:33;;;;;;;7.95;5.15;;;;;;;;;;5093149;28;20020;-73
2022/11/28 10:30:01;;;;;;;7.43;5.47;;;;;;;;;;5093270;28;20016;-72
2022/11/28 10:32:31;;;;;;;7.25;5.47;;;;;;;;;;5108518;28;20016;-72
2022/11/28 10:34:59;;;;;;;10.27;5.22;;;;;;;;;;5092383;28;20028;-73
2022/11/28 10:37:26;;;;;;;9.05;5.63;;;;;;;;;;5092711;28;20099;-69
2022/11/28 10:39:51;;;;;;;7.85;5.43;;;;;;;;;;5092709;28;20016;-72
2022/11/28 10:42:26;;;;;;;6.03;4.65;;;;;;;;;;5093031;28;20100;-71
2022/11/28 10:44:55;;;;;;;8.23;4.68;;;;;;;;;;5092663;28;20106;-73
2022/11/28 10:47:20;;;;;;;11.05;6.00;;;;;;;;;;5108033;28;20423;-72
2022/11/28 10:50:04;;;;;;;8.02;5.75;;;;;;;;;;5093060;28;20020;-71
2022/11/28 10:52:36;;;;;;;8.73;6.15;;;;;;;;;;5093509;28;20028;-72
2022/11/28 10:55:20;;;;;;;8.05;5.20;;;;;;;;;;5092220;28;20089;-72
2022/11/28 10:57:57;;;;;;;11.23;5.90;;;;;;;;;;5092241;28;20016;-70
2022/11/28 11:00:22;;;;;;;6.97;5.05;;;;;;;;;;5092119;28;20047;-72
2022/11/28 11:02:49;;;;;;;9.38;4.63;;;;;;;;;;5092171;28;20107;-72
2022/11/28 11:05:19;;;;;;;7.22;5.10;;;;;;;;;;5092358;28;20081;-72
2022/11/28 11:07:48;;;;;;;10.02;5.28;;;;;;;;;;5107880;28;20381;-72
2022/11/28 11:10:22;;;;;;;8.90;5.85;;;;;;;;;;5107631;28;20051;-71
2022/11/28 11:12:49;;;;;;;8.00;5.80;;;;;;;;;;5107007;28;20496;-72
2022/11/28 11:15:31;;;;;;;12.40;7.53;;;;;;;;;;5091893;28;20019;-73
2022/11/28 11:17:58;;;;;;;8.85;5.72;;;;;;;;;;5091963;28;20449;-73
2022/11/28 11:20:26;;;;;;;7.82;4.75;;;;;;;;;;5091880;28;20020;-73
2022/11/28 11:22:56;;;;;;;8.95;5.88;;;;;;;;;;5092522;28;20065;-76
2022/11/28 11:25:22;;;;;;;10.73;5.72;;;;;;;;;;5107504;28;20088;-73
2022/11/28 11:27:53;;;;;;;10.05;5.80;;;;;;;;;;5108018;28;20027;-74
2022/11/28 11:30:33;;;;;;;6.45;3.65;;;;;;;;;;5107332;28;20536;-73
2022/11/28 11:33:00;;;;;;;6.28;3.92;;;;;;;;;;5107517;28;20032;-74
2022/11/28 11:35:27;;;;;;;9.45;5.53;;;;;;;;;;5107474;28;20024;-72
2022/11/28 11:37:55;;;;;;;11.73;5.88;;;;;;;;;;5107675;28;20016;-74
2022/11/28 11:40:20;;;;;;;9.00;6.78;;;;;;;;;;5091786;28;20483;-71
2022/11/28 11:42:54;;;;;;;10.02;6.55;;;;;;;;;;5092041;28;20016;-74
2022/11/28 11:45:30;;;;;;;8.23;6.22;;;;;;;;;;5091738;28;20028;-72
2022/11/28 11:47:56;;;;;;;9.30;6.78;;;;;;;;;;5107304;28;20034;-75
2022/11/28 11:50:22;;;;;;;8.73;6.30;;;;;;;;;;5091874;28;20411;-75
2022/11/28 11:53:01;;;;;;;8.15;4.47;;;;;;;;;;5107254;28;20085;-71
2022/11/28 11:55:28;;;;;;;5.95;3.97;;;;;;;;;;5091506;28;20091;-77
2022/11/28 11:57:54;;;;;;;6.70;4.80;;;;;;;;;;5107663;28;20020;-77
2022/11/28 12:00:27;;;;;;;6.78;5.20;;;;;;;;;;5091806;28;20047;-73
2022/11/28 12:03:03;;;;;;;8.75;5.53;;;;;;;;;;5092060;28;20024;-73
2022/11/28 12:05:33;;;;;;;6.45;4.28;;;;;;;;;;5091957;28;20055;-72
2022/11/28 12:07:58;;;;;;;7.93;4.10;;;;;;;;;;5092309;28;20039;-75
2022/11/28 12:10:26;;;;;;;9.30;5.60;;;;;;;;;;5092040;28;20024;-75
2022/11/28 12:12:51;;;;;;;8.52;5.25;;;;;;;;;;5092061;28;20016;-75
2022/11/28 12:15:32;;;;;;;7.03;4.45;;;;;;;;;;5091355;28;20020;-71
2022/11/28 12:17:57;;;;;;;6.93;4.43;;;;;;;;;;5091933;28;20130;-76
2022/11/28 12:20:32;;;;;;;5.43;4.00;;;;;;;;;;5091117;28;20024;-76
2022/11/28 12:23:03;;;;;;;3.17;2.20;;;;;;;;;;5091508;28;20069;-73
2022/11/28 12:25:33;;;;;;;3.88;2.78;;;;;;;;;;5094695;28;20464;-72
2022/11/28 12:27:58;;;;;;;4.68;2.75;;;;;;;;;;5111007;28;20541;-76
2022/11/28 12:30:27;;;;;;;4.72;3.38;;;;;;;;;;5095001;28;20020;-74
2022/11/28 12:33:03;;;;;;;4.60;2.80;;;;;;;;;;5095106;28;20563;-73
2022/11/28 12:35:32;;;;;;;5.38;3.13;;;;;;;;;;5095425;28;20480;-73
2022/11/28 12:38:09;;;;;;;5.82;3.90;;;;;;;;;;5095186;28;20114;-73
2022/11/28 12:40:40;;;;;;;5.90;4.10;;;;;;;;;;5110658;28;20117;-72
2022/11/28 12:43:14;;;;;;;6.50;3.60;;;;;;;;;;5110601;28;20357;-74
2022/11/28 12:45:44;;;;;;;5.30;4.30;;;;;;;;;;5110974;28;20349;-76
2022/11/28 12:48:34;;;;;;;10.02;4.70;;;;;;;;;;5095239;28;20486;-76
2022/11/28 12:51:05;;;;;;;7.68;5.30;;;;;;;;;;5094171;28;20456;-75
2022/11/28 12:53:47;;;;;;;7.47;4.72;;;;;;;;;;5110244;28;20464;-73
2022/11/28 12:56:25;;;;;;;9.23;5.53;;;;;;;;;;5110308;28;20015;-76
2022/11/28 12:58:56;;;;;;;5.97;3.95;;;;;;;;;;5095505;28;20056;-74
2022/11/28 13:01:30;;;;;;;8.02;4.80;;;;;;;;;;5110295;28;20548;-75
2022/11/28 13:04:15;;;;;;;5.00;3.22;;;;;;;;;;5110515;28;20024;-76
2022/11/28 13:06:59;;;;;;;5.57;2.97;;;;;;;;;;5094914;28;20039;-76
2022/11/28 13:09:30;;;;;;;4.90;3.30;;;;;;;;;;5095663;28;20023;-75
2022/11/28 13:11:56;;;;;;;7.32;5.03;;;;;;;;;;5095143;28;20036;-76
2022/11/28 13:14:27;;;;;;;5.47;3.88;;;;;;;;;;5112602;28;20074;-74
2022/11/28 13:16:54;;;;;;;6.75;4.00;;;;;;;;;;5110321;28;20020;-74
2022/11/28 13:19:25;;;;;;;7.55;4.57;;;;;;;;;;5094683;28;20099;-77
2022/11/28 13:21:54;;;;;;;7.05;4.38;;;;;;;;;;5110575;28;20020;-77
2022/11/28 13:24:35;;;;;;;7.05;4.90;;;;;;;;;;5103295;28;20073;-73
2022/11/28 13:27:24;;;;;;;5.47;4.28;;;;;;;;;;5104407;28;20384;-75
2022/11/28 13:29:52;;;;;;;6.70;5.00;;;;;;;;;;5099073;28;20020;-74
2022/11/28 13:32:20;;;;;;;6.38;4.65;;;;;;;;;;5110732;28;20028;-76
2022/11/28 13:34:47;;;;;;;5.22;3.10;;;;;;;;;;5109406;28;20613;-73
2022/11/28 13:37:35;;;;;;;7.05;5.18;;;;;;;;;;5109791;28;20100;-77
2022/11/28 13:40:06;;;;;;;8.50;5.63;;;;;;;;;;5093962;28;20035;-74
2022/11/28 13:42:37;;;;;;;7.70;4.85;;;;;;;;;;5094703;28;20024;-77
2022/11/28 13:45:07;;;;;;;8.23;4.88;;;;;;;;;;5109856;28;20103;-74
2022/11/28 13:47:34;;;;;;;6.70;3.33;;;;;;;;;;5094632;28;20017;-75
2022/11/28 13:50:18;;;;;;;5.30;3.17;;;;;;;;;;5094220;28;20100;-73
2022/11/28 13:52:44;;;;;;;6.67;3.93;;;;;;;;;;5109429;28;20047;-75
2022/11/28 13:55:39;;;;;;;6.00;3.67;;;;;;;;;;5093617;28;20116;-76
2022/11/28 13:58:31;;;;;;;5.63;3.33;;;;;;;;;;5083089;28;20039;-73
2022/11/28 14:01:05;;;;;;;3.83;3.10;;;;;;;;;;5084213;28;20078;-75
2022/11/28 14:03:32;;;;;;;7.18;4.38;;;;;;;;;;5093579;28;20031;-74
2022/11/28 14:05:58;;;;;;;3.40;1.50;;;;;;;;;;5093183;28;20122;-75
2022/11/28 14:08:43;;;;;;;6.97;4.45;;;;;;;;;;5093880;28;20016;-74
2022/11/28 14:11:27;;;;;;;4.85;3.90;;;;;;;;;;5093230;28;20098;-76
2022/11/28 14:13:55;;;;;;;4.82;3.60;;;;;;;;;;5093504;28;20472;-78
2022/11/28 14:16:29;;;;;;;5.05;3.60;;;;;;;;;;5093233;28;20100;-75
2022/11/28 14:18:55;;;;;;;6.50;4.67;;;;;;;;;;5093583;28;20023;-76
2022/11/28 14:21:46;;;;;;;3.72;3.03;;;;;;;;;;5108994;28;20020;-75
2022/11/28 14:24:23;;;;;;;5.95;4.43;;;;;;;;;;5089935;28;20028;-74
2022/11/28 14:26:55;;;;;;;6.80;4.28;;;;;;;;;;5092945;28;20093;-75
2022/11/28 14:29:25;;;;;;;6.57;4.40;;;;;;;;;;5093368;28;20400;-78
2022/11/28 14:31:55;;;;;;;4.32;2.92;;;;;;;;;;5093580;28;20095;-73
2022/11/28 14:34:41;;;;;;;4.40;2.97;;;;;;;;;;5092853;28;20375;-76
2022/11/28 14:37:19;;;;;;;5.95;4.65;;;;;;;;;;5091342;28;20054;-75
2022/11/28 14:39:48;;;;;;;4.15;3.25;;;;;;;;;;5108623;28;20062;-79
2022/11/28 14:42:13;;;;;;;7.95;4.88;;;;;;;;;;5093078;28;20050;-76
2022/11/28 14:44:44;;;;;;;8.50;4.88;;;;;;;;;;5092868;28;20462;-75
2022/11/28 14:47:34;;;;;;;7.32;5.53;;;;;;;;;;5107095;28;20404;-77
2022/11/28 14:50:05;;;;;;;9.07;6.07;;;;;;;;;;5092869;28;20028;-77
2022/11/28 14:52:31;;;;;;;6.05;4.03;;;;;;;;;;5092387;28;20107;-74
2022/11/28 14:54:59;;;;;;;5.07;3.80;;;;;;;;;;5108194;28;20050;-76